Time;durP1;ratioP1;P1;durP2;ratioP2;P2;SDS_P1;SDS_P2;PMS_P1;PMS_P2;Temp;Humidity;BMP_temperature;BMP_pressure;BME280_temperature;BME280_humidity;BME280_pressure;Samples;Min_cycle;Max_cycle;Signal;HPM_P1;HPM_P2
2023/01/26 00:01:17;;;;;;;73.00;20.20;;;;;;;;;;5078694;28;20048;-59
2023/01/26 00:03:43;;;;;;;60.20;16.08;;;;;;;;;;5076021;28;20024;-59
2023/01/26 00:06:08;;;;;;;45.60;15.65;;;;;;;;;;5080357;28;20054;-59
2023/01/26 00:08:34;;;;;;;44.50;14.40;;;;;;;;;;5078004;28;20135;-59
2023/01/26 00:11:04;;;;;;;47.20;16.00;;;;;;;;;;5074495;28;20367;-59
2023/01/26 00:13:29;;;;;;;58.15;16.48;;;;;;;;;;5080013;28;20024;-59
2023/01/26 00:15:55;;;;;;;56.50;15.90;;;;;;;;;;5080570;28;20073;-59
2023/01/26 00:18:20;;;;;;;58.30;16.13;;;;;;;;;;5076612;28;20031;-60
2023/01/26 00:20:45;;;;;;;56.42;16.83;;;;;;;;;;5070841;28;20020;-59
2023/01/26 00:23:11;;;;;;;55.95;16.50;;;;;;;;;;5076729;28;20028;-59
2023/01/26 00:25:37;;;;;;;59.83;19.33;;;;;;;;;;5079510;28;20800;-59
2023/01/26 00:28:02;;;;;;;56.47;17.90;;;;;;;;;;5081593;28;20043;-58
2023/01/26 00:30:27;;;;;;;63.85;18.42;;;;;;;;;;5077506;28;20410;-60
2023/01/26 00:32:52;;;;;;;58.67;18.75;;;;;;;;;;5091732;28;20020;-58
2023/01/26 00:35:27;;;;;;;61.38;18.38;;;;;;;;;;5082078;28;20020;-60
2023/01/26 00:37:53;;;;;;;66.53;19.60;;;;;;;;;;5078386;28;20115;-59
2023/01/26 00:40:18;;;;;;;53.72;19.60;;;;;;;;;;5077347;28;20024;-59
2023/01/26 00:42:44;;;;;;;72.07;21.75;;;;;;;;;;5078826;28;20555;-59
2023/01/26 00:45:09;;;;;;;55.70;18.30;;;;;;;;;;5072958;28;20040;-59
2023/01/26 00:47:34;;;;;;;60.00;16.42;;;;;;;;;;5071709;28;20028;-58
2023/01/26 00:50:00;;;;;;;60.90;18.10;;;;;;;;;;5076836;28;20115;-59
2023/01/26 00:52:25;;;;;;;65.03;17.48;;;;;;;;;;5072174;28;20115;-58
2023/01/26 00:54:50;;;;;;;63.47;18.75;;;;;;;;;;5075347;28;20063;-59
2023/01/26 00:57:15;;;;;;;61.65;15.98;;;;;;;;;;5079496;28;20040;-59
2023/01/26 00:59:40;;;;;;;51.25;17.50;;;;;;;;;;5075631;28;20563;-59
2023/01/26 01:02:06;;;;;;;59.88;16.55;;;;;;;;;;5079413;28;20573;-58
2023/01/26 01:04:31;;;;;;;58.78;16.58;;;;;;;;;;5072828;28;20118;-58
2023/01/26 01:06:57;;;;;;;65.25;18.17;;;;;;;;;;5074539;28;20071;-59
2023/01/26 01:09:22;;;;;;;57.55;19.13;;;;;;;;;;5077672;28;20060;-59
2023/01/26 01:11:47;;;;;;;72.20;17.85;;;;;;;;;;5077390;28;20386;-59
2023/01/26 01:14:12;;;;;;;63.78;19.27;;;;;;;;;;5083148;28;20032;-59
2023/01/26 01:16:38;;;;;;;67.70;21.27;;;;;;;;;;5081280;28;20048;-59
2023/01/26 01:19:03;;;;;;;67.10;20.05;;;;;;;;;;5083706;28;20474;-59
2023/01/26 01:21:30;;;;;;;93.85;21.92;;;;;;;;;;5077444;28;20085;-59
2023/01/26 01:23:56;;;;;;;77.50;19.83;;;;;;;;;;5075644;28;20020;-59
2023/01/26 01:26:21;;;;;;;81.28;21.00;;;;;;;;;;5075647;28;20047;-59
2023/01/26 01:28:46;;;;;;;76.32;19.15;;;;;;;;;;5081175;28;20032;-59
2023/01/26 01:31:12;;;;;;;67.90;18.15;;;;;;;;;;5087033;28;20035;-59
2023/01/26 01:33:37;;;;;;;75.57;18.88;;;;;;;;;;5072120;28;20033;-59
2023/01/26 01:36:04;;;;;;;65.68;17.50;;;;;;;;;;5076367;28;20026;-59
2023/01/26 01:38:29;;;;;;;79.32;20.75;;;;;;;;;;5076190;28;20044;-59
2023/01/26 01:40:54;;;;;;;77.18;18.63;;;;;;;;;;5078243;28;20481;-59
2023/01/26 01:43:19;;;;;;;73.22;20.50;;;;;;;;;;5078555;28;20031;-59
2023/01/26 01:45:45;;;;;;;83.15;19.88;;;;;;;;;;5073373;28;20125;-59
2023/01/26 01:48:12;;;;;;;79.85;18.75;;;;;;;;;;5075919;28;20612;-59
2023/01/26 01:50:38;;;;;;;87.43;18.27;;;;;;;;;;5075137;28;20533;-59
2023/01/26 01:53:03;;;;;;;79.45;19.48;;;;;;;;;;5075770;28;20024;-58
2023/01/26 01:55:28;;;;;;;78.60;19.98;;;;;;;;;;5080826;28;20039;-59
2023/01/26 01:57:54;;;;;;;81.72;19.52;;;;;;;;;;5094712;28;20466;-58
2023/01/26 02:00:20;;;;;;;84.72;19.50;;;;;;;;;;5079846;28;20016;-59
2023/01/26 02:03:09;;;;;;;82.93;18.75;;;;;;;;;;5073467;28;20476;-59
2023/01/26 02:05:33;;;;;;;77.90;21.58;;;;;;;;;;5080757;28;20044;-59
2023/01/26 02:07:59;;;;;;;64.88;18.77;;;;;;;;;;5079285;28;20505;-59
2023/01/26 02:10:24;;;;;;;80.47;19.50;;;;;;;;;;5078534;28;20497;-58
2023/01/26 02:12:50;;;;;;;73.10;17.70;;;;;;;;;;5078852;28;20036;-59
2023/01/26 02:15:15;;;;;;;82.32;21.90;;;;;;;;;;5077923;28;20020;-59
2023/01/26 02:17:40;;;;;;;75.63;20.52;;;;;;;;;;5077400;28;20129;-58
2023/01/26 02:20:15;;;;;;;83.13;22.25;;;;;;;;;;5079336;28;20470;-59
2023/01/26 02:22:46;;;;;;;72.38;20.35;;;;;;;;;;5078420;28;20119;-58
2023/01/26 02:25:14;;;;;;;83.63;20.55;;;;;;;;;;5076955;28;20020;-58
2023/01/26 02:27:39;;;;;;;90.20;24.00;;;;;;;;;;5076823;28;20536;-58
2023/01/26 02:30:05;;;;;;;87.35;22.92;;;;;;;;;;5077159;28;20028;-58
2023/01/26 02:32:30;;;;;;;87.30;21.73;;;;;;;;;;5083055;28;20498;-58
2023/01/26 02:34:56;;;;;;;77.65;21.00;;;;;;;;;;5075469;28;20017;-57
2023/01/26 02:37:21;;;;;;;82.20;23.50;;;;;;;;;;5082782;28;20020;-58
2023/01/26 02:39:48;;;;;;;85.28;22.80;;;;;;;;;;5073456;28;20031;-57
2023/01/26 02:44:57;;;;;;;74.85;21.77;;;;;;;;;;5082184;28;20390;-59
2023/01/26 02:47:23;;;;;;;90.53;21.08;;;;;;;;;;5079597;28;20020;-59
2023/01/26 02:49:51;;;;;;;76.43;21.27;;;;;;;;;;5076563;28;20439;-59
2023/01/26 02:52:17;;;;;;;79.07;21.33;;;;;;;;;;5078195;28;20027;-58
2023/01/26 02:57:26;;;;;;;89.05;23.88;;;;;;;;;;5080838;28;20233;-58
2023/01/26 02:59:51;;;;;;;96.28;22.35;;;;;;;;;;5079400;28;20468;-58
2023/01/26 03:02:16;;;;;;;84.43;21.83;;;;;;;;;;5081322;28;20023;-58
2023/01/26 03:04:42;;;;;;;65.85;19.88;;;;;;;;;;5077374;28;20122;-58
2023/01/26 03:07:08;;;;;;;91.50;21.58;;;;;;;;;;5077037;28;20016;-58
2023/01/26 03:09:33;;;;;;;83.32;21.90;;;;;;;;;;5083264;28;20242;-58
2023/01/26 03:11:58;;;;;;;81.95;21.95;;;;;;;;;;5077710;28;20371;-58
2023/01/26 03:14:23;;;;;;;53.50;16.95;;;;;;;;;;5081179;28;20433;-58
2023/01/26 03:16:48;;;;;;;80.40;20.33;;;;;;;;;;5081583;28;20470;-58
2023/01/26 03:27:25;;;;;;;55.80;17.15;;;;;;;;;;5074427;28;20139;-58
2023/01/26 03:29:51;;;;;;;72.82;18.88;;;;;;;;;;5074575;28;20119;-58
2023/01/26 03:32:16;;;;;;;63.78;16.52;;;;;;;;;;5077992;28;20192;-59
2023/01/26 03:34:41;;;;;;;54.88;17.15;;;;;;;;;;5079454;28;20130;-58
2023/01/26 03:37:06;;;;;;;64.53;18.75;;;;;;;;;;5080485;28;20401;-58
2023/01/26 03:56:20;;;;;;;80.70;18.73;;;;;;;;;;5080934;28;20097;-59
2023/01/26 03:58:46;;;;;;;66.38;18.45;;;;;;;;;;5083025;28;20028;-58
2023/01/26 04:01:18;;;;;;;71.38;20.13;;;;;;;;;;5077735;28;20024;-58
2023/01/26 04:09:12;;;;;;;76.22;19.23;;;;;;;;;;5079754;28;20404;-58
2023/01/26 04:11:37;;;;;;;63.80;18.80;;;;;;;;;;5080560;28;20032;-58
2023/01/26 04:22:14;;;;;;;67.97;18.92;;;;;;;;;;5077533;28;20093;-58
2023/01/26 04:24:39;;;;;;;84.70;20.63;;;;;;;;;;5073006;28;20469;-58
2023/01/26 04:27:04;;;;;;;82.43;20.13;;;;;;;;;;5081208;28;20460;-58
2023/01/26 04:29:29;;;;;;;81.82;21.98;;;;;;;;;;5071233;28;20077;-59
2023/01/26 04:31:55;;;;;;;86.88;22.92;;;;;;;;;;5070420;28;20058;-58
2023/01/26 04:34:20;;;;;;;148.13;30.75;;;;;;;;;;5075996;28;20038;-59
2023/01/26 04:36:46;;;;;;;89.72;25.92;;;;;;;;;;5074054;28;20074;-58
2023/01/26 04:39:11;;;;;;;114.20;26.15;;;;;;;;;;5070348;28;20079;-58
2023/01/26 04:41:36;;;;;;;85.45;24.50;;;;;;;;;;5075381;28;20407;-58
2023/01/26 04:44:01;;;;;;;131.75;43.05;;;;;;;;;;5074492;28;20035;-58
2023/01/26 04:46:27;;;;;;;117.45;30.73;;;;;;;;;;5075045;28;20425;-58
2023/01/26 04:48:52;;;;;;;152.27;51.90;;;;;;;;;;5080743;28;20066;-58
2023/01/26 04:51:19;;;;;;;153.63;56.35;;;;;;;;;;5076139;28;20048;-58
2023/01/26 04:53:44;;;;;;;144.48;44.17;;;;;;;;;;5075928;28;20028;-58
2023/01/26 04:56:14;;;;;;;118.18;29.30;;;;;;;;;;5074563;28;20419;-58
2023/01/26 04:58:39;;;;;;;103.35;24.40;;;;;;;;;;5067488;28;20020;-58
2023/01/26 05:01:04;;;;;;;123.28;32.35;;;;;;;;;;5084589;28;20020;-58
2023/01/26 05:03:30;;;;;;;109.55;28.65;;;;;;;;;;5078159;28;20347;-59
2023/01/26 05:05:55;;;;;;;105.05;22.45;;;;;;;;;;5097758;28;20449;-58
2023/01/26 05:08:20;;;;;;;104.05;22.02;;;;;;;;;;5081060;28;20048;-60
2023/01/26 05:10:46;;;;;;;144.18;29.58;;;;;;;;;;5081036;28;20101;-59
2023/01/26 05:13:11;;;;;;;119.65;26.27;;;;;;;;;;5077794;28;20462;-59
2023/01/26 05:15:36;;;;;;;107.43;24.02;;;;;;;;;;5082260;28;20035;-60
2023/01/26 05:18:01;;;;;;;117.15;24.17;;;;;;;;;;5097226;28;20090;-60
2023/01/26 05:20:27;;;;;;;126.82;25.60;;;;;;;;;;5065750;28;20024;-59
2023/01/26 05:22:52;;;;;;;127.43;25.23;;;;;;;;;;5082392;28;20016;-59
2023/01/26 05:25:17;;;;;;;115.97;24.13;;;;;;;;;;5092552;28;20024;-59
2023/01/26 05:27:43;;;;;;;108.40;26.05;;;;;;;;;;5080331;28;20137;-59
2023/01/26 05:30:08;;;;;;;128.07;27.27;;;;;;;;;;5084791;28;20059;-59
2023/01/26 05:32:33;;;;;;;119.45;26.83;;;;;;;;;;5080936;28;20056;-58
2023/01/26 05:34:59;;;;;;;135.50;26.65;;;;;;;;;;5081904;28;20051;-58
2023/01/26 05:37:24;;;;;;;118.05;28.85;;;;;;;;;;5084735;28;20552;-58
2023/01/26 05:39:50;;;;;;;112.93;22.95;;;;;;;;;;5072753;28;20111;-58
2023/01/26 05:42:15;;;;;;;111.65;25.63;;;;;;;;;;5076712;28;20020;-58
2023/01/26 05:44:40;;;;;;;109.10;25.27;;;;;;;;;;5075560;28;20530;-58
2023/01/26 05:47:05;;;;;;;132.20;26.30;;;;;;;;;;5083650;28;20025;-58
2023/01/26 05:49:31;;;;;;;112.53;23.42;;;;;;;;;;5074065;28;20470;-58
2023/01/26 05:51:56;;;;;;;113.85;25.17;;;;;;;;;;5071951;28;20028;-59
2023/01/26 05:54:21;;;;;;;117.70;27.35;;;;;;;;;;5082944;28;20327;-58
2023/01/26 05:56:46;;;;;;;116.00;23.80;;;;;;;;;;5078554;28;20020;-58
2023/01/26 05:59:12;;;;;;;122.93;27.45;;;;;;;;;;5081739;28;20023;-58
2023/01/26 06:01:38;;;;;;;168.23;48.35;;;;;;;;;;5080271;28;20530;-58
2023/01/26 06:04:03;;;;;;;108.82;25.15;;;;;;;;;;5077601;28;20099;-58
2023/01/26 06:06:28;;;;;;;125.93;25.35;;;;;;;;;;5071750;28;20036;-58
2023/01/26 06:08:54;;;;;;;117.60;27.92;;;;;;;;;;5073223;28;20072;-58
2023/01/26 06:11:19;;;;;;;134.63;26.50;;;;;;;;;;5097196;28;20025;-59
2023/01/26 06:13:44;;;;;;;122.80;28.83;;;;;;;;;;5073919;28;20017;-58
2023/01/26 06:16:09;;;;;;;113.85;29.08;;;;;;;;;;5077941;28;20529;-58
2023/01/26 06:18:35;;;;;;;107.55;24.17;;;;;;;;;;5080364;28;20020;-58
2023/01/26 06:21:00;;;;;;;113.13;27.67;;;;;;;;;;5085182;28;20031;-60
2023/01/26 06:23:25;;;;;;;119.80;26.58;;;;;;;;;;5080591;28;20020;-61
2023/01/26 06:25:51;;;;;;;124.90;30.23;;;;;;;;;;5060884;28;20025;-58
2023/01/26 06:28:16;;;;;;;157.10;36.67;;;;;;;;;;5077970;28;20236;-58
2023/01/26 06:30:52;;;;;;;115.40;27.75;;;;;;;;;;5077344;28;20044;-60
2023/01/26 06:33:17;;;;;;;115.03;28.45;;;;;;;;;;5075769;28;20455;-60
2023/01/26 06:35:42;;;;;;;128.07;34.30;;;;;;;;;;5074119;28;20047;-60
2023/01/26 06:38:08;;;;;;;116.82;30.20;;;;;;;;;;5078634;28;20428;-60
2023/01/26 06:40:33;;;;;;;102.47;26.45;;;;;;;;;;5059341;28;20431;-59
2023/01/26 06:42:58;;;;;;;300.60;66.10;;;;;;;;;;5078664;28;20032;-59
2023/01/26 06:45:23;;;;;;;115.68;27.30;;;;;;;;;;5077217;28;20039;-59
2023/01/26 06:47:49;;;;;;;93.65;23.27;;;;;;;;;;5073892;28;20042;-60
2023/01/26 06:50:15;;;;;;;110.22;24.88;;;;;;;;;;5077647;28;20088;-59
2023/01/26 06:52:40;;;;;;;95.38;23.38;;;;;;;;;;5076156;28;20643;-60
2023/01/26 06:55:08;;;;;;;97.32;22.50;;;;;;;;;;5073619;28;20028;-59
2023/01/26 06:57:33;;;;;;;102.28;26.05;;;;;;;;;;5072304;28;20027;-60
2023/01/26 06:59:58;;;;;;;114.07;27.83;;;;;;;;;;5081425;28;20036;-59
2023/01/26 07:02:24;;;;;;;115.72;28.30;;;;;;;;;;5079830;28;20016;-60
2023/01/26 07:04:50;;;;;;;151.35;38.38;;;;;;;;;;5079477;28;20070;-60
2023/01/26 07:07:15;;;;;;;118.15;27.17;;;;;;;;;;5080601;28;20420;-60
2023/01/26 07:09:40;;;;;;;181.23;41.33;;;;;;;;;;5081487;28;20040;-59
2023/01/26 07:12:05;;;;;;;109.15;25.50;;;;;;;;;;5080787;28;20077;-59
2023/01/26 07:14:31;;;;;;;115.05;27.20;;;;;;;;;;5062807;28;20120;-59
2023/01/26 07:16:56;;;;;;;134.82;30.27;;;;;;;;;;5083389;28;20611;-59
2023/01/26 07:19:21;;;;;;;124.78;26.92;;;;;;;;;;5074324;28;20032;-59
2023/01/26 07:21:47;;;;;;;122.93;25.98;;;;;;;;;;5079703;28;20506;-59
2023/01/26 07:24:12;;;;;;;109.85;24.65;;;;;;;;;;5080586;28;20055;-60
2023/01/26 07:26:38;;;;;;;143.35;29.98;;;;;;;;;;5078418;28;20505;-59
2023/01/26 07:29:03;;;;;;;144.88;29.17;;;;;;;;;;5074994;28;20036;-59
2023/01/26 07:31:28;;;;;;;130.35;29.50;;;;;;;;;;5074429;28;20123;-60
2023/01/26 07:33:53;;;;;;;138.02;28.25;;;;;;;;;;5077159;28;20070;-60
2023/01/26 07:36:19;;;;;;;131.93;26.23;;;;;;;;;;5077265;28;20437;-59
2023/01/26 07:38:44;;;;;;;115.53;25.63;;;;;;;;;;5073092;28;20055;-59
2023/01/26 07:41:10;;;;;;;102.28;23.70;;;;;;;;;;5070147;28;20035;-59
2023/01/26 07:43:35;;;;;;;136.48;27.15;;;;;;;;;;5077176;28;20024;-59
2023/01/26 07:46:01;;;;;;;132.05;27.98;;;;;;;;;;5075259;28;20583;-59
2023/01/26 07:48:28;;;;;;;122.13;24.95;;;;;;;;;;5070012;28;20448;-59
2023/01/26 07:50:58;;;;;;;115.15;25.17;;;;;;;;;;5073290;28;20028;-58
2023/01/26 07:53:26;;;;;;;100.85;22.55;;;;;;;;;;5072561;28;20022;-58
2023/01/26 07:55:51;;;;;;;112.28;23.50;;;;;;;;;;5076115;28;20029;-59
2023/01/26 07:58:17;;;;;;;109.70;23.88;;;;;;;;;;5077196;28;20016;-59
2023/01/26 08:00:45;;;;;;;119.85;26.45;;;;;;;;;;5073766;28;20569;-59
2023/01/26 08:03:11;;;;;;;128.18;26.50;;;;;;;;;;5072918;28;20354;-58
2023/01/26 08:05:37;;;;;;;107.80;24.77;;;;;;;;;;5071983;28;20029;-59
2023/01/26 08:08:02;;;;;;;100.47;23.15;;;;;;;;;;5089431;28;20490;-58
2023/01/26 08:10:30;;;;;;;108.57;24.90;;;;;;;;;;5072022;28;20048;-59
2023/01/26 08:12:55;;;;;;;110.20;26.60;;;;;;;;;;5070409;28;20024;-58
2023/01/26 08:15:21;;;;;;;147.20;32.33;;;;;;;;;;5075522;28;20104;-59
2023/01/26 08:17:46;;;;;;;127.50;27.75;;;;;;;;;;5076683;28;20029;-59
2023/01/26 08:20:12;;;;;;;115.10;24.77;;;;;;;;;;5068310;28;20028;-58
2023/01/26 08:22:38;;;;;;;96.07;21.27;;;;;;;;;;5078515;28;20092;-59
2023/01/26 08:25:03;;;;;;;100.32;21.25;;;;;;;;;;5080321;28;20027;-58
2023/01/26 08:27:28;;;;;;;99.47;21.85;;;;;;;;;;5078194;28;20240;-59
2023/01/26 08:29:54;;;;;;;97.22;23.42;;;;;;;;;;5079607;28;20192;-58
2023/01/26 08:32:19;;;;;;;90.75;23.30;;;;;;;;;;5072062;28;20498;-59
2023/01/26 08:34:44;;;;;;;100.25;24.02;;;;;;;;;;5080454;28;20469;-59
2023/01/26 08:37:09;;;;;;;98.35;23.08;;;;;;;;;;5074815;28;20274;-59
2023/01/26 08:39:35;;;;;;;90.65;23.25;;;;;;;;;;5072045;28;20059;-59
2023/01/26 08:42:00;;;;;;;93.38;22.73;;;;;;;;;;5077560;28;20135;-59
2023/01/26 08:44:25;;;;;;;112.07;27.23;;;;;;;;;;5074458;28;20031;-59
2023/01/26 08:46:50;;;;;;;92.90;22.67;;;;;;;;;;5072919;28;20052;-59
2023/01/26 08:49:16;;;;;;;94.90;26.80;;;;;;;;;;5075410;28;20035;-59
2023/01/26 08:51:41;;;;;;;84.82;22.55;;;;;;;;;;5074820;28;20471;-59
2023/01/26 08:54:09;;;;;;;95.68;23.05;;;;;;;;;;5080241;28;20017;-59
2023/01/26 08:56:34;;;;;;;88.50;23.05;;;;;;;;;;5068838;28;20101;-59
2023/01/26 08:59:00;;;;;;;90.15;22.25;;;;;;;;;;5071493;28;20052;-59
2023/01/26 09:01:25;;;;;;;86.35;25.35;;;;;;;;;;5071418;28;20418;-60
2023/01/26 09:03:51;;;;;;;99.93;23.38;;;;;;;;;;5075212;28;20012;-58
2023/01/26 09:06:17;;;;;;;92.40;23.13;;;;;;;;;;5077291;28;20548;-59
2023/01/26 09:08:42;;;;;;;149.75;41.28;;;;;;;;;;5080859;28;20048;-58
2023/01/26 09:11:07;;;;;;;103.85;25.70;;;;;;;;;;5082836;28;20039;-61
2023/01/26 09:13:32;;;;;;;140.00;31.77;;;;;;;;;;5079798;28;20028;-59
2023/01/26 09:15:58;;;;;;;108.07;28.27;;;;;;;;;;5078994;28;20474;-59
2023/01/26 09:18:23;;;;;;;117.85;29.08;;;;;;;;;;5075828;28;20039;-59
2023/01/26 09:20:50;;;;;;;128.95;28.50;;;;;;;;;;5072259;28;20024;-60
2023/01/26 09:23:16;;;;;;;111.97;27.15;;;;;;;;;;5077580;28;20032;-59
2023/01/26 09:25:42;;;;;;;114.53;29.45;;;;;;;;;;5077677;28;20045;-58
2023/01/26 09:28:07;;;;;;;105.80;26.27;;;;;;;;;;5082145;28;20027;-58
2023/01/26 09:30:32;;;;;;;136.27;34.92;;;;;;;;;;5078300;28;20040;-58
2023/01/26 09:32:58;;;;;;;132.80;31.02;;;;;;;;;;5070285;28;20024;-58
2023/01/26 09:35:24;;;;;;;103.82;24.70;;;;;;;;;;5072760;28;20028;-59
2023/01/26 09:37:49;;;;;;;107.20;27.10;;;;;;;;;;5079635;28;20435;-59
2023/01/26 09:40:19;;;;;;;134.50;31.80;;;;;;;;;;5078775;28;20016;-58
2023/01/26 09:42:48;;;;;;;90.25;24.65;;;;;;;;;;5099286;28;20104;-59
2023/01/26 09:45:14;;;;;;;107.03;25.70;;;;;;;;;;5086325;28;20368;-58
2023/01/26 09:48:02;;;;;;;119.00;29.13;;;;;;;;;;5079359;28;20280;-59
2023/01/26 09:50:30;;;;;;;120.78;28.67;;;;;;;;;;5077912;28;20474;-59
2023/01/26 09:52:59;;;;;;;132.73;29.98;;;;;;;;;;5074538;28;20482;-60
2023/01/26 09:55:24;;;;;;;96.93;25.90;;;;;;;;;;5073851;28;20467;-59
2023/01/26 09:57:51;;;;;;;100.10;24.20;;;;;;;;;;5080544;28;20023;-59
2023/01/26 10:00:21;;;;;;;103.57;23.85;;;;;;;;;;5077239;28;20066;-59
2023/01/26 10:02:46;;;;;;;122.78;30.02;;;;;;;;;;5091279;28;20278;-59
2023/01/26 10:05:37;;;;;;;154.85;44.42;;;;;;;;;;5078512;28;20027;-59
2023/01/26 10:08:04;;;;;;;125.32;29.90;;;;;;;;;;5077505;28;20335;-59
2023/01/26 10:10:30;;;;;;;138.75;33.75;;;;;;;;;;5076853;28;20035;-59
2023/01/26 10:12:56;;;;;;;118.70;29.98;;;;;;;;;;5074922;28;20034;-59
2023/01/26 10:15:21;;;;;;;138.40;34.53;;;;;;;;;;5074343;28;20012;-59
2023/01/26 10:17:46;;;;;;;130.93;31.70;;;;;;;;;;5082173;28;20034;-59
2023/01/26 10:20:21;;;;;;;110.93;23.23;;;;;;;;;;5093799;28;20038;-60
2023/01/26 10:22:47;;;;;;;104.45;25.88;;;;;;;;;;5072584;28;20042;-58
2023/01/26 10:25:26;;;;;;;104.72;24.13;;;;;;;;;;5098066;28;20032;-60
2023/01/26 10:27:51;;;;;;;92.03;25.13;;;;;;;;;;5079330;28;20023;-58
2023/01/26 10:30:17;;;;;;;96.25;26.15;;;;;;;;;;5081893;28;20097;-59
2023/01/26 10:32:42;;;;;;;100.40;26.98;;;;;;;;;;5079760;28;20249;-59
2023/01/26 11:09:30;;;;;;;55.67;17.70;;;;;;;-1.96;100.00;99940.81;5049834;27;21087;-60
2023/01/26 11:12:06;;;;;;;65.32;19.15;;;;;;;-1.80;100.00;99939.34;5055861;28;20029;-60
2023/01/26 11:14:32;;;;;;;74.07;21.92;;;;;;;-1.77;100.00;99949.59;5065931;28;20174;-60
2023/01/26 11:17:05;;;;;;;69.80;20.80;;;;;;;-1.71;100.00;99938.50;5043989;28;20029;-60
2023/01/26 11:19:45;;;;;;;73.93;22.38;;;;;;;-1.82;100.00;99930.78;5091990;28;20493;-60
2023/01/26 11:22:16;;;;;;;58.97;18.15;;;;;;;-2.05;100.00;99935.59;5056600;28;20032;-60
2023/01/26 11:24:51;;;;;;;76.40;24.55;;;;;;;-1.89;100.00;99930.56;5062947;28;20064;-60
2023/01/26 11:27:35;;;;;;;80.13;22.92;;;;;;;-1.90;100.00;99926.25;5063253;28;20033;-60
2023/01/26 11:30:22;;;;;;;79.15;22.60;;;;;;;-1.80;100.00;99923.59;5053749;28;20060;-60
2023/01/26 11:33:00;;;;;;;72.65;20.73;;;;;;;-1.92;100.00;99925.59;5053549;28;20369;-59
2023/01/26 11:35:35;;;;;;;73.95;21.45;;;;;;;-1.83;100.00;99924.72;5057801;28;20036;-60
2023/01/26 11:38:19;;;;;;;75.32;21.38;;;;;;;-1.81;100.00;99914.06;5059581;28;20423;-58
2023/01/26 11:40:49;;;;;;;73.65;22.35;;;;;;;-1.68;100.00;99911.91;5062822;28;20092;-59
2023/01/26 11:43:31;;;;;;;75.05;23.23;;;;;;;-1.79;100.00;99904.25;5048965;28;20028;-59
2023/01/26 11:46:21;;;;;;;76.20;23.63;;;;;;;-1.66;100.00;99902.09;5053550;28;20064;-58
2023/01/26 11:48:59;;;;;;;81.45;24.83;;;;;;;-1.54;100.00;99900.91;5049411;28;20110;-59
2023/01/26 11:51:35;;;;;;;65.93;19.55;;;;;;;-1.67;100.00;99896.97;5054860;28;20044;-58
2023/01/26 11:54:07;;;;;;;77.47;24.02;;;;;;;-1.65;100.00;99895.84;5049769;28;20032;-59
2023/01/26 11:56:50;;;;;;;81.38;24.50;;;;;;;-1.64;100.00;99892.25;5059029;28;20029;-60
2023/01/26 11:59:47;;;;;;;74.22;22.08;;;;;;;-1.69;100.00;99888.41;5064788;28;20147;-59
2023/01/26 12:02:30;;;;;;;76.40;24.38;;;;;;;-1.60;100.00;99883.13;5062635;28;20124;-61
2023/01/26 12:05:01;;;;;;;100.57;27.02;;;;;;;-1.61;100.00;99884.06;5050962;28;20040;-60
2023/01/26 12:07:50;;;;;;;77.78;22.58;;;;;;;-1.58;100.00;99873.25;5075912;28;20120;-60
2023/01/26 12:10:15;;;;;;;76.22;22.60;;;;;;;-1.45;100.00;99864.19;5055988;28;20498;-60
2023/01/26 12:12:44;;;;;;;99.20;31.20;;;;;;;-1.82;100.00;99872.97;5039205;28;20021;-59
2023/01/26 12:15:26;;;;;;;78.07;24.02;;;;;;;-1.58;100.00;99857.47;5059575;28;20025;-58
2023/01/26 12:18:00;;;;;;;80.22;24.00;;;;;;;-1.57;100.00;99863.59;5052723;28;20086;-60
2023/01/26 12:20:39;;;;;;;71.65;24.05;;;;;;;-1.47;100.00;99866.13;5045211;28;20159;-59
2023/01/26 12:23:05;;;;;;;78.43;22.75;;;;;;;-1.65;100.00;99853.78;5038384;28;20088;-59
2023/01/26 12:25:35;;;;;;;73.95;20.67;;;;;;;-1.55;100.00;99849.31;5045927;28;20100;-58
2023/01/26 12:28:22;;;;;;;85.33;24.57;;;;;;;-1.57;100.00;99856.53;5038771;28;20107;-58
2023/01/26 12:30:50;;;;;;;84.30;25.20;;;;;;;-1.39;100.00;99840.75;5040914;28;20502;-58
2023/01/26 12:33:15;;;;;;;79.63;24.27;;;;;;;-1.37;100.00;99848.50;5039630;28;20072;-59
2023/01/26 12:35:50;;;;;;;63.78;20.15;;;;;;;-1.48;100.00;99835.56;5040936;28;20033;-58
2023/01/26 12:38:18;;;;;;;70.13;23.17;;;;;;;-1.54;100.00;99834.38;5047958;28;20034;-59
2023/01/26 12:41:08;;;;;;;84.78;21.55;;;;;;;-1.67;100.00;99834.72;5036785;28;20396;-59
2023/01/26 12:43:43;;;;;;;85.90;24.83;;;;;;;-1.52;100.00;99833.22;5046625;28;20333;-60
2023/01/26 12:46:08;;;;;;;93.03;25.17;;;;;;;-1.55;100.00;99833.53;5038389;28;20033;-60
2023/01/26 12:49:04;;;;;;;96.93;26.50;;;;;;;-1.58;100.00;99828.56;5039852;28;20525;-60
2023/01/26 12:51:37;;;;;;;82.30;25.15;;;;;;;-1.39;100.00;99824.97;5039295;28;20044;-60
2023/01/26 12:54:17;;;;;;;92.75;25.65;;;;;;;-1.34;100.00;99824.53;5043042;28;20074;-60
2023/01/26 12:56:49;;;;;;;111.57;31.95;;;;;;;-1.38;100.00;99823.97;5042930;28;20025;-60
2023/01/26 12:59:20;;;;;;;110.72;30.55;;;;;;;-1.29;100.00;99827.53;5046651;28;20497;-60
2023/01/26 13:01:45;;;;;;;129.60;36.95;;;;;;;-1.52;100.00;99819.28;5030812;28;20030;-60
2023/01/26 13:04:12;;;;;;;110.65;29.73;;;;;;;-1.58;100.00;99833.81;5038000;28;20478;-60
2023/01/26 13:06:37;;;;;;;116.25;27.65;;;;;;;-1.40;100.00;99828.59;5042973;28;20028;-60
2023/01/26 13:09:18;;;;;;;114.30;26.90;;;;;;;-1.45;100.00;99830.00;5044699;28;20099;-60
2023/01/26 13:11:54;;;;;;;108.70;27.75;;;;;;;-1.58;100.00;99825.94;5070270;28;20029;-60
2023/01/26 13:14:37;;;;;;;113.57;26.70;;;;;;;-1.54;100.00;99832.56;5043264;28;20410;-60
2023/01/26 13:17:15;;;;;;;93.15;25.90;;;;;;;-1.45;100.00;99824.72;5040137;28;20025;-59
2023/01/26 13:19:40;;;;;;;122.95;28.90;;;;;;;-1.60;100.00;99830.53;5045200;28;20063;-59
2023/01/26 13:22:26;;;;;;;120.78;26.80;;;;;;;-1.40;100.00;99819.84;5038450;28;20041;-59
2023/01/26 13:24:54;;;;;;;116.03;28.88;;;;;;;-1.51;100.00;99828.78;5034160;28;20045;-59
2023/01/26 13:27:38;;;;;;;106.85;25.10;;;;;;;-1.46;100.00;99825.72;5047156;28;20046;-59
2023/01/26 13:30:22;;;;;;;86.63;22.35;;;;;;;-1.65;100.00;99816.97;5039801;28;20032;-59
2023/01/26 13:32:47;;;;;;;115.47;29.05;;;;;;;-1.58;100.00;99820.66;5041217;28;20037;-59
2023/01/26 13:35:13;;;;;;;125.43;27.73;;;;;;;-1.64;100.00;99818.66;5046180;28;20529;-59
2023/01/26 13:38:06;;;;;;;142.07;29.25;;;;;;;-1.50;100.00;99816.47;5043721;28;20056;-58
2023/01/26 13:40:36;;;;;;;108.22;24.85;;;;;;;-1.54;100.00;99822.03;5039636;28;20059;-59
2023/01/26 13:43:15;;;;;;;115.77;24.77;;;;;;;-1.50;100.00;99819.09;5037523;28;20513;-59
2023/01/26 13:45:50;;;;;;;118.47;29.52;;;;;;;-1.49;100.00;99818.97;5039391;28;20033;-59
2023/01/26 13:48:19;;;;;;;105.10;26.40;;;;;;;-1.63;100.00;99820.28;5034855;28;20568;-59
2023/01/26 13:50:45;;;;;;;101.63;24.27;;;;;;;-1.45;100.00;99817.66;5040542;28;20388;-59
2023/01/26 13:53:48;;;;;;;107.43;25.45;;;;;;;-1.46;100.00;99820.47;5039580;28;20052;-59
2023/01/26 13:56:23;;;;;;;88.18;23.27;;;;;;;-1.54;100.00;99823.84;5044208;28;20029;-59
2023/01/26 13:58:49;;;;;;;119.47;26.85;;;;;;;-1.61;100.00;99823.59;5032734;28;20430;-59
2023/01/26 14:01:15;;;;;;;113.55;32.05;;;;;;;-1.68;100.00;99826.97;5039925;28;20042;-59
2023/01/26 14:03:41;;;;;;;118.18;27.13;;;;;;;-1.62;100.00;99811.44;5033687;28;20040;-59
2023/01/26 14:06:13;;;;;;;137.70;27.58;;;;;;;-1.40;100.00;99825.09;5037971;28;20139;-60
2023/01/26 14:08:38;;;;;;;145.70;30.08;;;;;;;-1.52;100.00;99830.59;5029388;28;20045;-59
2023/01/26 14:11:13;;;;;;;91.82;23.70;;;;;;;-1.48;100.00;99830.31;5066907;28;20498;-59
2023/01/26 14:13:40;;;;;;;122.25;29.27;;;;;;;-1.58;100.00;99830.38;5028541;28;20060;-59
2023/01/26 14:16:05;;;;;;;125.70;27.38;;;;;;;-1.52;100.00;99830.59;5040753;28;20547;-59
2023/01/26 14:18:31;;;;;;;116.50;27.13;;;;;;;-1.48;100.00;99833.75;5049701;28;20032;-59
2023/01/26 14:21:02;;;;;;;139.32;27.40;;;;;;;-1.54;100.00;99835.19;5040973;28;20029;-59
2023/01/26 14:23:29;;;;;;;125.75;27.13;;;;;;;-1.49;100.00;99836.53;5048484;28;20107;-59
2023/01/26 14:26:00;;;;;;;116.50;27.90;;;;;;;-1.45;100.00;99830.00;5041112;28;20036;-59
2023/01/26 14:28:33;;;;;;;124.30;25.55;;;;;;;-1.47;100.00;99826.69;5031753;28;20044;-59
2023/01/26 14:31:01;;;;;;;134.73;26.70;;;;;;;-1.45;100.00;99819.47;5039338;28;20063;-59
2023/01/26 14:33:27;;;;;;;122.95;24.48;;;;;;;-1.48;100.00;99822.41;5041259;28;20041;-59
2023/01/26 14:36:00;;;;;;;88.75;21.08;;;;;;;-1.42;100.00;99833.16;5048256;28;20343;-59
2023/01/26 14:38:27;;;;;;;91.65;20.70;;;;;;;-1.48;100.00;99825.03;5045424;28;20370;-59